createdAt,value
2022-10-28T00:00:48.785Z,9.35
2022-10-28T00:03:15.499Z,9.85
2022-10-28T00:05:42.065Z,7.95
2022-10-28T00:08:08.539Z,7.13
2022-10-28T00:10:35.043Z,7.97
2022-10-28T00:13:01.467Z,12.07
2022-10-28T00:15:28.017Z,9.88
2022-10-28T00:17:54.774Z,11.15
2022-10-28T00:20:21.408Z,10.48
2022-10-28T00:22:47.864Z,11.20
2022-10-28T00:25:14.336Z,10.95
2022-10-28T00:27:40.826Z,5.60
2022-10-28T00:30:07.765Z,10.88
2022-10-28T00:32:34.192Z,11.20
2022-10-28T00:35:00.643Z,9.13
2022-10-28T00:37:27.069Z,5.65
2022-10-28T00:39:53.520Z,12.18
2022-10-28T00:42:22.143Z,11.40
2022-10-28T00:45:02.398Z,10.98
2022-10-28T00:47:36.597Z,10.45
2022-10-28T00:50:21.167Z,10.82
2022-10-28T00:52:55.922Z,12.38
2022-10-28T00:55:24.189Z,10.70
2022-10-28T00:57:50.887Z,11.90
2022-10-28T01:00:17.697Z,11.02
2022-10-28T01:02:48.071Z,6.45
2022-10-28T01:05:17.819Z,11.45
2022-10-28T01:07:44.836Z,10.48
2022-10-28T01:10:13.558Z,10.85
2022-10-28T01:13:05.141Z,12.15
2022-10-28T01:16:07.303Z,12.30
2022-10-28T01:18:44.315Z,11.02
2022-10-28T01:21:31.380Z,6.32
2022-10-28T01:24:29.741Z,8.50
2022-10-28T01:27:33.523Z,7.18
2022-10-28T01:30:08.403Z,10.68
2022-10-28T01:33:09.509Z,11.20
2022-10-28T01:36:01.163Z,11.25
2022-10-28T01:39:09.554Z,9.88
2022-10-28T01:41:47.771Z,11.85
2022-10-28T01:44:42.963Z,9.65
2022-10-28T01:47:14.716Z,8.13
2022-10-28T01:50:02.094Z,11.15
2022-10-28T01:52:30.862Z,9.48
2022-10-28T01:55:09.706Z,11.23
2022-10-28T01:57:38.885Z,11.00
2022-10-28T02:00:06.068Z,11.02
2022-10-28T02:02:39.649Z,12.73
2022-10-28T02:05:39.837Z,5.80
2022-10-28T02:08:18.502Z,10.68
2022-10-28T02:11:00.276Z,12.00
2022-10-28T02:13:55.964Z,7.70
2022-10-28T02:16:59.893Z,11.45
2022-10-28T02:19:45.058Z,8.50
2022-10-28T02:22:30.397Z,6.05
2022-10-28T02:25:09.188Z,9.88
2022-10-28T02:27:40.359Z,13.20
2022-10-28T02:30:11.706Z,11.73
2022-10-28T02:35:14.447Z,11.93
2022-10-28T02:37:43.885Z,10.15
2022-10-28T02:40:18.368Z,12.35
2022-10-28T02:42:50.017Z,11.07
2022-10-28T02:45:21.132Z,9.43
2022-10-28T02:48:05.248Z,13.10
2022-10-28T02:50:36.183Z,10.82
2022-10-28T02:53:10.604Z,12.52
2022-10-28T02:55:42.494Z,12.02
2022-10-28T02:58:10.570Z,11.57
2022-10-28T03:00:37.116Z,15.02
2022-10-28T03:03:04.072Z,10.98
2022-10-28T03:05:30.548Z,13.02
2022-10-28T03:07:57.131Z,12.95
2022-10-28T03:10:23.642Z,11.73
2022-10-28T03:12:50.058Z,14.13
2022-10-28T03:15:16.466Z,12.98
2022-10-28T03:17:42.914Z,14.35
2022-10-28T03:20:10.038Z,12.80
2022-10-28T03:22:36.463Z,12.13
2022-10-28T03:25:03.341Z,15.05
2022-10-28T03:27:29.786Z,14.93
2022-10-28T03:29:56.262Z,15.77
2022-10-28T03:37:20.418Z,15.05
2022-10-28T03:39:46.858Z,13.30
2022-10-28T03:42:13.332Z,14.63
2022-10-28T03:44:39.739Z,14.57
2022-10-28T03:47:06.205Z,15.45
2022-10-28T03:49:32.618Z,14.52
2022-10-28T03:51:59.021Z,17.05
2022-10-28T03:54:25.492Z,15.65
2022-10-28T03:56:51.904Z,14.48
2022-10-28T03:59:20.226Z,14.50
2022-10-28T04:01:47.098Z,17.63
2022-10-28T04:04:13.598Z,18.50
2022-10-28T04:06:40.016Z,18.02
2022-10-28T04:09:06.464Z,20.10
2022-10-28T04:11:32.943Z,18.40
2022-10-28T04:13:59.448Z,12.52
2022-10-28T04:16:26.055Z,17.35
2022-10-28T04:18:52.554Z,17.17
2022-10-28T04:21:19.046Z,14.73
2022-10-28T04:23:45.454Z,13.70
2022-10-28T04:26:11.947Z,13.75
2022-10-28T04:28:38.394Z,15.10
2022-10-28T04:31:05.026Z,14.25
2022-10-28T04:33:31.520Z,9.50
2022-10-28T04:35:58.103Z,14.07
2022-10-28T04:40:56.157Z,16.50
2022-10-28T04:43:22.590Z,14.70
2022-10-28T04:45:49.036Z,16.73
2022-10-28T04:48:15.468Z,16.08
2022-10-28T04:50:42.094Z,13.95
2022-10-28T04:53:12.335Z,15.65
2022-10-28T04:55:39.214Z,17.35
2022-10-28T04:58:05.738Z,16.52
2022-10-28T05:00:32.299Z,15.43
2022-10-28T05:03:01.874Z,16.27
2022-10-28T05:05:28.376Z,15.27
2022-10-28T05:07:55.183Z,16.13
2022-10-28T05:10:21.937Z,15.27
2022-10-28T05:12:48.380Z,11.63
2022-10-28T05:15:15.710Z,17.77
2022-10-28T05:17:47.082Z,16.17
2022-10-28T05:22:53.725Z,18.42
2022-10-28T05:25:21.592Z,17.98
2022-10-28T05:27:48.058Z,17.73
2022-10-28T05:30:15.223Z,17.70
2022-10-28T05:32:41.800Z,15.60
2022-10-28T05:35:09.406Z,17.20
2022-10-28T05:37:36.204Z,18.52
2022-10-28T05:40:03.093Z,17.85
2022-10-28T05:42:29.563Z,16.50
2022-10-28T05:44:55.973Z,17.65
2022-10-28T05:47:22.430Z,17.20
2022-10-28T05:49:48.849Z,17.15
2022-10-28T05:52:15.262Z,16.15
2022-10-28T05:54:41.674Z,14.75
2022-10-28T05:57:08.112Z,17.17
2022-10-28T05:59:34.522Z,16.15
2022-10-28T06:02:00.955Z,15.55
2022-10-28T06:04:27.484Z,19.20
2022-10-28T06:06:56.788Z,14.52
2022-10-28T06:09:23.271Z,17.67
2022-10-28T06:11:48.217Z,18.55
2022-10-28T06:14:14.630Z,15.75
2022-10-28T06:16:42.260Z,19.58
2022-10-28T06:19:08.769Z,17.08
2022-10-28T06:21:35.229Z,19.60
2022-10-28T06:24:01.789Z,18.67
2022-10-28T06:26:28.234Z,19.52
2022-10-28T06:28:54.773Z,18.05
2022-10-28T06:31:21.240Z,18.30
2022-10-28T06:33:47.646Z,19.35
2022-10-28T06:36:14.147Z,13.77
2022-10-28T06:38:40.679Z,16.73
2022-10-28T06:41:07.112Z,16.50
2022-10-28T06:43:33.554Z,12.70
2022-10-28T06:46:01.786Z,16.52
2022-10-28T06:48:29.727Z,17.63
2022-10-28T06:50:57.577Z,15.57
2022-10-28T06:53:24.957Z,16.73
2022-10-28T06:55:56.288Z,10.55
2022-10-28T07:00:49.204Z,16.73
2022-10-28T07:03:16.208Z,16.85
2022-10-28T07:05:42.964Z,15.13
2022-10-28T07:08:09.420Z,17.58
2022-10-28T07:10:35.849Z,15.48
2022-10-28T07:13:02.301Z,14.75
2022-10-28T07:15:28.831Z,14.98
2022-10-28T07:17:57.437Z,14.50
2022-10-28T07:20:26.117Z,15.00
2022-10-28T07:23:00.306Z,14.43
2022-10-28T07:25:30.730Z,16.23
2022-10-28T07:27:58.582Z,15.18
2022-10-28T07:30:25.705Z,15.68
2022-10-28T07:32:52.685Z,14.52
2022-10-28T07:35:19.960Z,14.40
2022-10-28T07:37:46.522Z,15.73
2022-10-28T07:40:13.402Z,15.38
2022-10-28T07:42:39.890Z,13.18
2022-10-28T07:45:06.757Z,14.77
2022-10-28T07:47:33.235Z,12.93
2022-10-28T07:49:59.720Z,14.60
2022-10-28T07:52:26.182Z,14.10
2022-10-28T07:54:52.661Z,12.43
2022-10-28T07:57:19.437Z,12.32
2022-10-28T07:59:45.868Z,14.38
2022-10-28T08:02:17.578Z,13.27
2022-10-28T08:04:44.261Z,12.27
2022-10-28T08:07:11.772Z,13.20
2022-10-28T08:09:38.497Z,13.80
2022-10-28T08:12:05.748Z,13.02
2022-10-28T08:14:32.265Z,11.43
2022-10-28T08:16:58.708Z,11.95
2022-10-28T08:19:25.139Z,13.20
2022-10-28T08:21:51.617Z,13.95
2022-10-28T08:24:18.057Z,11.48
2022-10-28T08:26:44.478Z,13.95
2022-10-28T08:29:12.164Z,12.98
2022-10-28T08:31:39.332Z,12.52
2022-10-28T08:34:06.576Z,13.25
2022-10-28T08:36:33.724Z,12.57
2022-10-28T08:39:01.609Z,12.68
2022-10-28T08:41:37.430Z,13.18
2022-10-28T08:44:31.894Z,11.55
2022-10-28T08:47:01.274Z,10.88
2022-10-28T08:49:32.142Z,11.60
2022-10-28T08:52:00.808Z,12.30
2022-10-28T08:54:29.409Z,10.45
2022-10-28T08:57:00.681Z,10.73
2022-10-28T09:02:26.030Z,10.02
2022-10-28T09:05:21.864Z,9.85
2022-10-28T09:07:48.684Z,10.60
2022-10-28T09:10:17.158Z,10.27
2022-10-28T09:13:24.726Z,10.02
2022-10-28T09:16:02.446Z,9.75
2022-10-28T09:18:39.571Z,9.75
2022-10-28T09:21:15.858Z,8.48
2022-10-28T09:23:58.550Z,8.45
2022-10-28T09:26:40.258Z,9.77
2022-10-28T09:29:43.237Z,8.25
2022-10-28T09:32:25.944Z,9.25
2022-10-28T09:35:09.567Z,7.88
2022-10-28T09:37:40.398Z,8.10
2022-10-28T09:40:19.615Z,8.93
2022-10-28T09:42:58.608Z,8.98
2022-10-28T09:45:32.238Z,7.80
2022-10-28T09:48:03.347Z,9.00
2022-10-28T09:50:31.859Z,8.65
2022-10-28T09:53:53.132Z,7.90
2022-10-28T09:57:01.001Z,7.72
2022-10-28T09:59:27.693Z,8.35
2022-10-28T10:01:54.657Z,9.05
2022-10-28T10:04:34.366Z,8.40
2022-10-28T10:07:14.997Z,7.43
2022-10-28T10:09:44.031Z,7.97
2022-10-28T10:12:12.441Z,7.07
2022-10-28T10:14:47.756Z,6.80
2022-10-28T10:17:26.966Z,6.75
2022-10-28T10:20:11.583Z,7.35
2022-10-28T10:22:40.708Z,7.60
2022-10-28T10:25:19.361Z,7.07
2022-10-28T10:28:14.391Z,8.23
2022-10-28T10:30:53.427Z,6.47
2022-10-28T10:33:31.164Z,6.72
2022-10-28T10:36:02.241Z,6.88
2022-10-28T10:38:30.330Z,6.82
2022-10-28T10:40:57.221Z,6.97
2022-10-28T10:43:31.001Z,7.47
2022-10-28T10:46:13.812Z,6.93
2022-10-28T10:48:40.812Z,6.90
2022-10-28T10:51:12.542Z,6.32
2022-10-28T10:53:40.027Z,6.93
2022-10-28T10:56:10.657Z,6.10
2022-10-28T10:58:51.534Z,6.70
2022-10-28T11:01:22.165Z,6.28
2022-10-28T11:06:34.087Z,7.43
2022-10-28T11:09:25.431Z,6.38
2022-10-28T11:11:55.429Z,6.65
2022-10-28T11:14:29.295Z,6.35
2022-10-28T11:16:58.435Z,7.15
2022-10-28T11:19:33.771Z,6.63
2022-10-28T11:22:17.131Z,6.97
2022-10-28T11:25:14.075Z,6.25
2022-10-28T11:27:43.325Z,6.45
2022-10-28T11:30:19.866Z,6.97
2022-10-28T11:33:28.663Z,6.68
2022-10-28T11:35:59.454Z,6.38
2022-10-28T11:38:32.030Z,6.97
2022-10-28T11:41:29.032Z,6.65
2022-10-28T11:44:03.829Z,7.10
2022-10-28T11:46:53.338Z,6.45
2022-10-28T11:49:32.000Z,5.63
2022-10-28T11:52:20.250Z,7.43
2022-10-28T11:55:03.334Z,6.30
2022-10-28T11:57:58.481Z,6.22
2022-10-28T12:00:40.773Z,6.28
2022-10-28T12:03:19.324Z,6.82
2022-10-28T12:06:13.389Z,7.15
2022-10-28T12:09:01.431Z,7.10
2022-10-28T12:11:48.811Z,7.30
2022-10-28T12:14:22.125Z,6.78
2022-10-28T12:16:59.057Z,7.00
2022-10-28T12:19:31.632Z,6.85
2022-10-28T12:22:14.771Z,7.35
2022-10-28T12:24:44.639Z,7.40
2022-10-28T12:27:18.267Z,7.07
2022-10-28T12:29:51.249Z,6.60
2022-10-28T12:32:27.708Z,7.03
2022-10-28T12:34:56.891Z,7.20
2022-10-28T12:37:41.094Z,7.78
2022-10-28T12:40:24.479Z,7.32
2022-10-28T12:43:17.008Z,7.35
2022-10-28T12:45:43.893Z,7.93
2022-10-28T12:48:30.042Z,7.15
2022-10-28T12:51:21.347Z,7.80
2022-10-28T12:53:58.346Z,7.53
2022-10-28T12:56:31.779Z,7.72
2022-10-28T12:59:06.501Z,7.13
2022-10-28T13:01:35.717Z,7.85
2022-10-28T13:04:02.745Z,7.07
2022-10-28T13:07:00.563Z,7.82
2022-10-28T13:09:46.879Z,8.00
2022-10-28T13:12:45.002Z,8.07
2022-10-28T13:15:26.792Z,8.40
2022-10-28T13:18:14.961Z,7.45
2022-10-28T13:20:57.668Z,8.50
2022-10-28T13:23:57.990Z,7.80
2022-10-28T13:26:31.743Z,7.53
2022-10-28T13:29:01.248Z,7.82
2022-10-28T13:31:46.883Z,7.25
2022-10-28T13:34:16.039Z,7.43
2022-10-28T13:36:45.107Z,7.80
2022-10-28T13:39:23.325Z,8.18
2022-10-28T13:42:12.610Z,8.57
2022-10-28T13:44:50.891Z,7.38
2022-10-28T13:47:17.245Z,7.55
2022-10-28T13:50:13.181Z,7.97
2022-10-28T13:52:41.629Z,8.60
2022-10-28T13:55:14.216Z,7.85
2022-10-28T13:57:48.116Z,8.02
2022-10-28T14:00:17.549Z,7.90
2022-10-28T14:02:56.953Z,7.90
2022-10-28T14:05:32.555Z,8.13
2022-10-28T14:08:03.811Z,7.85
2022-10-28T14:10:57.692Z,8.02
2022-10-28T14:13:24.382Z,8.30
2022-10-28T14:16:14.732Z,7.68
2022-10-28T14:18:44.510Z,7.82
2022-10-28T14:21:11.890Z,7.85
2022-10-28T14:23:44.291Z,8.55
2022-10-28T14:26:10.748Z,7.20
2022-10-28T14:28:37.105Z,8.23
2022-10-28T14:31:12.756Z,7.80
2022-10-28T14:33:42.034Z,8.57
2022-10-28T14:36:17.418Z,7.85
2022-10-28T14:39:06.439Z,6.93
2022-10-28T14:42:17.766Z,8.05
2022-10-28T14:44:57.940Z,7.88
2022-10-28T14:47:33.483Z,8.23
2022-10-28T14:50:15.250Z,8.10
2022-10-28T14:52:44.336Z,8.00
2022-10-28T14:55:37.284Z,9.07
2022-10-28T14:58:21.567Z,8.35
2022-10-28T15:01:17.242Z,8.07
2022-10-28T15:03:57.619Z,8.18
2022-10-28T15:06:30.952Z,7.38
2022-10-28T15:09:28.836Z,8.43
2022-10-28T15:12:05.809Z,8.48
2022-10-28T15:14:37.758Z,9.02
2022-10-28T15:17:12.697Z,8.45
2022-10-28T15:19:39.180Z,9.20
2022-10-28T15:22:12.160Z,8.90
2022-10-28T15:24:41.661Z,8.20
2022-10-28T15:27:13.554Z,9.00
2022-10-28T15:29:42.347Z,9.82
2022-10-28T15:32:21.965Z,7.90
2022-10-28T15:34:49.038Z,8.20
2022-10-28T15:37:17.886Z,7.68
2022-10-28T15:39:49.233Z,9.68
2022-10-28T15:42:36.914Z,7.85
2022-10-28T15:45:04.089Z,8.13
2022-10-28T15:47:36.831Z,8.75
2022-10-28T15:50:33.421Z,8.90
2022-10-28T15:53:21.145Z,8.52
2022-10-28T15:56:06.893Z,8.43
2022-10-28T15:58:39.039Z,8.77
2022-10-28T16:01:28.673Z,8.13
2022-10-28T16:03:55.339Z,8.48
2022-10-28T16:06:33.739Z,9.55
2022-10-28T16:09:09.247Z,8.48
2022-10-28T16:11:41.271Z,8.65
2022-10-28T16:14:33.699Z,7.75
2022-10-28T16:17:16.532Z,7.88
2022-10-28T16:20:00.764Z,8.60
2022-10-28T16:22:29.762Z,8.95
2022-10-28T16:24:57.395Z,8.13
2022-10-28T16:27:27.273Z,8.77
2022-10-28T16:29:54.066Z,8.60
2022-10-28T16:32:27.526Z,9.23
2022-10-28T16:34:55.192Z,8.18
2022-10-28T16:37:27.513Z,9.55
2022-10-28T16:39:54.768Z,9.30
2022-10-28T16:42:22.531Z,9.88
2022-10-28T16:44:49.038Z,10.70
2022-10-28T16:47:18.042Z,10.82
2022-10-28T16:49:45.213Z,10.15
2022-10-28T16:52:17.578Z,9.82
2022-10-28T16:54:44.053Z,9.27
2022-10-28T16:57:10.613Z,9.05
2022-10-28T16:59:37.238Z,8.13
2022-10-28T17:02:05.127Z,8.75
2022-10-28T17:04:31.829Z,9.85
2022-10-28T17:06:58.242Z,7.90
2022-10-28T17:09:24.663Z,10.57
2022-10-28T17:11:51.082Z,10.05
2022-10-28T17:14:17.510Z,9.70
2022-10-28T17:16:43.947Z,8.77
2022-10-28T17:19:10.452Z,8.30
2022-10-28T17:21:36.859Z,9.68
2022-10-28T17:24:04.325Z,10.30
2022-10-28T17:26:30.799Z,11.10
2022-10-28T17:28:57.212Z,9.70
2022-10-28T17:31:25.183Z,9.27
2022-10-28T17:33:55.537Z,8.70
2022-10-28T17:36:23.130Z,7.75
2022-10-28T17:38:49.657Z,9.95
2022-10-28T17:41:16.107Z,8.35
2022-10-28T17:43:42.529Z,11.20
2022-10-28T17:46:09.923Z,8.25
2022-10-28T17:48:36.744Z,11.05
2022-10-28T17:51:03.271Z,11.20
2022-10-28T17:53:29.679Z,10.38
2022-10-28T17:55:57.929Z,9.07
2022-10-28T17:58:25.045Z,11.02
2022-10-28T18:01:02.522Z,8.43
2022-10-28T18:06:03.585Z,11.48
2022-10-28T18:08:34.395Z,10.98
2022-10-28T18:11:00.893Z,10.05
2022-10-28T18:13:28.460Z,8.85
2022-10-28T18:15:54.954Z,11.57
2022-10-28T18:18:21.406Z,10.23
2022-10-28T18:20:55.160Z,11.27
2022-10-28T18:23:23.089Z,11.30
2022-10-28T18:26:01.195Z,8.43
2022-10-28T18:28:29.804Z,8.68
2022-10-28T18:31:07.921Z,8.57
2022-10-28T18:33:34.671Z,10.52
2022-10-28T18:36:10.889Z,9.32
2022-10-28T18:38:37.348Z,8.45
2022-10-28T18:41:04.026Z,9.75
2022-10-28T18:43:30.562Z,10.20
2022-10-28T18:46:02.213Z,10.68
2022-10-28T18:48:30.339Z,11.05
2022-10-28T18:51:01.876Z,9.23
2022-10-28T18:53:28.649Z,11.05
2022-10-28T18:56:00.682Z,11.15
2022-10-28T18:58:27.651Z,11.38
2022-10-28T19:00:54.059Z,12.20
2022-10-28T19:03:23.450Z,11.88
2022-10-28T19:05:49.872Z,10.27
2022-10-28T19:08:16.307Z,11.73
2022-10-28T19:10:42.738Z,11.32
2022-10-28T19:13:09.217Z,9.27
2022-10-28T19:15:40.042Z,11.40
2022-10-28T19:18:06.483Z,10.30
2022-10-28T19:20:32.901Z,11.10
2022-10-28T19:22:59.651Z,7.90
2022-10-28T19:25:26.271Z,8.57
2022-10-28T19:27:52.922Z,10.45
2022-10-28T19:30:19.429Z,11.65
2022-10-28T19:32:45.852Z,8.52
2022-10-28T19:35:12.279Z,9.07
2022-10-28T19:37:38.718Z,11.90
2022-10-28T19:40:05.588Z,8.73
2022-10-28T19:42:32.008Z,9.50
2022-10-28T19:45:00.775Z,10.63
2022-10-28T19:47:27.390Z,11.23
2022-10-28T19:49:53.808Z,10.73
2022-10-28T19:52:20.231Z,9.70
2022-10-28T19:54:46.643Z,6.53
2022-10-28T19:59:44.453Z,8.18
2022-10-28T20:02:11.431Z,11.13
2022-10-28T20:04:37.959Z,7.85
2022-10-28T20:07:04.388Z,7.18
2022-10-28T20:09:30.809Z,8.65
2022-10-28T20:11:57.257Z,9.23
2022-10-28T20:14:23.738Z,9.10
2022-10-28T20:16:50.218Z,8.52
2022-10-28T20:19:16.625Z,8.60
2022-10-28T20:21:44.496Z,10.40
2022-10-28T20:24:10.913Z,5.95
2022-10-28T20:26:38.622Z,9.07
2022-10-28T20:29:06.770Z,9.80
2022-10-28T20:31:33.529Z,10.02
2022-10-28T20:34:03.438Z,7.97
2022-10-28T20:36:31.032Z,9.60
2022-10-28T20:39:02.693Z,9.75
2022-10-28T20:41:31.812Z,8.70
2022-10-28T20:43:58.427Z,10.05
2022-10-28T20:46:26.052Z,7.65
2022-10-28T20:48:54.212Z,8.75
2022-10-28T20:51:21.926Z,9.82
2022-10-28T20:53:48.409Z,7.35
2022-10-28T20:56:17.407Z,9.65
2022-10-28T20:58:43.928Z,8.75
2022-10-28T21:01:20.951Z,9.68
2022-10-28T21:03:48.294Z,9.05
2022-10-28T21:06:16.506Z,8.60
2022-10-28T21:08:43.730Z,9.05
2022-10-28T21:11:13.505Z,10.43
2022-10-28T21:13:42.189Z,9.90
2022-10-28T21:16:11.008Z,8.57
2022-10-28T21:18:38.914Z,7.78
2022-10-28T21:21:05.770Z,9.02
2022-10-28T21:23:32.693Z,7.40
2022-10-28T21:26:01.517Z,9.75
2022-10-28T21:28:29.989Z,6.20
2022-10-28T21:31:17.028Z,9.45
2022-10-28T21:33:44.139Z,9.18
2022-10-28T21:36:15.838Z,6.72
2022-10-28T21:38:42.501Z,8.68
2022-10-28T21:41:11.860Z,7.88
2022-10-28T21:43:40.403Z,6.75
2022-10-28T21:46:07.388Z,7.72
2022-10-28T21:48:35.307Z,9.75
2022-10-28T21:51:04.826Z,7.15
2022-10-28T21:53:34.556Z,10.95
2022-10-28T21:56:17.448Z,9.95
2022-10-28T21:58:46.399Z,8.55
2022-10-28T22:01:17.553Z,8.48
2022-10-28T22:06:10.994Z,6.05
2022-10-28T22:08:37.481Z,9.00
2022-10-28T22:11:07.093Z,9.88
2022-10-28T22:13:34.233Z,9.95
2022-10-28T22:16:06.334Z,7.20
2022-10-28T22:18:35.234Z,10.27
2022-10-28T22:21:12.801Z,10.68
2022-10-28T22:26:07.815Z,8.55
2022-10-28T22:28:34.599Z,10.57
2022-10-28T22:31:06.102Z,6.05
2022-10-28T22:33:33.454Z,10.55
2022-10-28T22:36:06.377Z,9.60
2022-10-28T22:38:32.911Z,9.65
2022-10-28T22:41:13.654Z,10.45
2022-10-28T22:43:41.958Z,11.02
2022-10-28T22:46:09.637Z,7.97
2022-10-28T22:48:36.398Z,7.32
2022-10-28T22:51:03.499Z,10.82
2022-10-28T22:53:29.964Z,10.50
2022-10-28T22:55:57.260Z,7.05
2022-10-28T22:58:24.605Z,10.80
2022-10-28T23:00:51.231Z,11.35
2022-10-28T23:03:18.067Z,7.15
2022-10-28T23:05:44.602Z,5.38
2022-10-28T23:08:14.832Z,7.82
2022-10-28T23:10:41.264Z,10.95
2022-10-28T23:13:11.448Z,11.52
2022-10-28T23:15:37.974Z,8.63
2022-10-28T23:18:04.401Z,8.80
2022-10-28T23:20:30.850Z,11.23
2022-10-28T23:22:57.337Z,9.73
2022-10-28T23:25:23.811Z,8.55
2022-10-28T23:27:50.244Z,9.15
2022-10-28T23:30:16.836Z,10.25
2022-10-28T23:32:43.253Z,5.40
2022-10-28T23:35:09.957Z,10.82
2022-10-28T23:37:36.665Z,11.60
2022-10-28T23:40:03.659Z,8.98
2022-10-28T23:42:30.386Z,11.35
2022-10-28T23:44:56.818Z,10.88
2022-10-28T23:47:23.238Z,10.38
2022-10-28T23:49:49.680Z,10.45
2022-10-28T23:52:16.126Z,10.18
2022-10-28T23:54:42.561Z,6.15
2022-10-28T23:57:09.061Z,6.85
2022-10-28T23:59:35.499Z,11.38
